Terminal Aerodrome Forecast
Issued by NWS Cleveland, OH

Home | Current Version | Previous Version | Graphics & Text | Print | Product List | Glossary On
Versions: 1 2 3 4 5 6 7 8 9 10 11 12 13 14 15 16 17
699
FTUS41 KCLE 031014 AAA
TAFTOL
TAF AMD
KTOL 031014Z 0310/0406 21010G15KT P6SM SCT025 OVC035
     FM031400 23015G25KT P6SM SCT025 OVC035
     FM032300 25015G25KT P6SM OVC025=

USA.gov is the U.S. government's official web portal to all federal, state and local government web resources and services.